createdAt,value
2022-12-14T00:00:46.076Z,92.61
2022-12-14T00:03:19.601Z,92.94
2022-12-14T00:05:52.598Z,92.92
2022-12-14T00:08:26.143Z,93.05
2022-12-14T00:11:00.915Z,92.90
2022-12-14T00:13:34.175Z,92.80
2022-12-14T00:16:14.308Z,93.10
2022-12-14T00:18:53.700Z,93.29
2022-12-14T00:21:27.286Z,93.53
2022-12-14T00:24:01.449Z,93.76
2022-12-14T00:26:35.327Z,93.96
2022-12-14T00:29:08.640Z,93.96
2022-12-14T00:31:41.394Z,94.23
2022-12-14T00:34:14.225Z,94.66
2022-12-14T00:36:47.144Z,95.05
2022-12-14T00:39:20.408Z,95.06
2022-12-14T00:41:53.297Z,95.24
2022-12-14T00:44:26.906Z,95.18
2022-12-14T00:47:01.120Z,95.19
2022-12-14T00:49:34.268Z,95.30
2022-12-14T00:52:07.817Z,95.62
2022-12-14T00:54:40.961Z,95.32
2022-12-14T00:57:14.274Z,95.22
2022-12-14T00:59:47.155Z,95.07
2022-12-14T01:02:20.267Z,94.98
2022-12-14T01:04:53.302Z,94.81
2022-12-14T01:07:26.188Z,95.02
2022-12-14T01:09:59.245Z,95.37
2022-12-14T01:12:32.659Z,95.12
2022-12-14T01:15:06.839Z,94.95
2022-12-14T01:17:40.837Z,94.54
2022-12-14T01:20:14.624Z,94.56
2022-12-14T01:22:47.456Z,94.22
2022-12-14T01:25:20.494Z,93.73
2022-12-14T01:27:53.505Z,93.18
2022-12-14T01:30:27.725Z,92.50
2022-12-14T01:33:01.033Z,92.30
2022-12-14T01:35:35.569Z,92.31
2022-12-14T01:38:10.762Z,92.27
2022-12-14T01:40:43.616Z,92.41
2022-12-14T01:43:16.611Z,92.53
2022-12-14T01:45:49.298Z,92.73
2022-12-14T01:48:22.191Z,92.81
2022-12-14T01:50:55.740Z,93.09
2022-12-14T01:53:29.653Z,93.28
2022-12-14T01:56:02.757Z,93.07
2022-12-14T01:58:35.846Z,92.86
2022-12-14T02:01:08.715Z,92.94
2022-12-14T02:03:48.434Z,92.93
2022-12-14T02:06:33.244Z,92.42
2022-12-14T02:09:15.621Z,92.20
2022-12-14T02:11:56.184Z,92.17
2022-12-14T02:14:28.926Z,91.84
2022-12-14T02:17:01.966Z,90.55
2022-12-14T02:19:34.842Z,90.17
2022-12-14T02:22:31.669Z,89.25
2022-12-14T02:25:20.344Z,88.75
2022-12-14T02:28:46.735Z,88.57
2022-12-14T02:32:03.323Z,87.96
2022-12-14T02:34:41.406Z,87.62
2022-12-14T02:37:49.408Z,87.15
2022-12-14T02:40:29.382Z,86.65
2022-12-14T02:43:36.288Z,86.46
2022-12-14T02:46:31.071Z,86.60
2022-12-14T02:49:16.951Z,86.98
2022-12-14T02:51:59.424Z,87.17
2022-12-14T02:54:42.284Z,87.41
2022-12-14T02:57:28.891Z,87.81
2022-12-14T03:00:04.620Z,88.20
2022-12-14T03:02:42.027Z,88.46
2022-12-14T03:05:15.158Z,88.56
2022-12-14T03:07:57.449Z,88.55
2022-12-14T03:10:51.462Z,88.87
2022-12-14T03:13:29.673Z,89.15
2022-12-14T03:16:18.841Z,89.22
2022-12-14T03:19:01.796Z,89.10
2022-12-14T03:21:38.630Z,89.02
2022-12-14T03:24:15.225Z,89.30
2022-12-14T03:27:04.628Z,89.66
2022-12-14T03:29:41.917Z,89.26
2022-12-14T03:32:23.706Z,88.63
2022-12-14T03:35:10.108Z,88.67
2022-12-14T03:38:02.737Z,88.61
2022-12-14T03:40:42.867Z,87.81
2022-12-14T03:43:33.856Z,87.60
2022-12-14T03:46:54.226Z,87.20
2022-12-14T03:49:34.532Z,87.55
2022-12-14T03:52:31.775Z,87.65
2022-12-14T03:55:14.967Z,87.57
2022-12-14T03:58:44.175Z,86.93
2022-12-14T04:01:24.740Z,86.90
2022-12-14T04:04:10.001Z,86.74
2022-12-14T04:06:59.188Z,86.47
2022-12-14T04:09:42.903Z,86.70
2022-12-14T04:12:55.516Z,86.82
2022-12-14T04:15:50.704Z,86.95
2022-12-14T04:18:45.958Z,86.60
2022-12-14T04:21:42.986Z,86.71
2022-12-14T04:24:41.272Z,86.76
2022-12-14T04:27:21.444Z,87.01
2022-12-14T04:29:58.225Z,87.29
2022-12-14T04:32:43.671Z,87.47
2022-12-14T04:35:35.495Z,87.53
2022-12-14T04:38:17.910Z,86.79
2022-12-14T04:40:59.501Z,86.63
2022-12-14T04:43:40.142Z,85.70
2022-12-14T04:46:17.257Z,85.37
2022-12-14T04:49:21.477Z,85.51
2022-12-14T04:52:10.099Z,85.87
2022-12-14T04:54:53.697Z,85.89
2022-12-14T04:57:49.546Z,85.78
2022-12-14T05:00:23.004Z,86.02
2022-12-14T05:03:21.579Z,85.79
2022-12-14T05:06:30.415Z,85.75
2022-12-14T05:09:28.843Z,86.06
2022-12-14T05:12:24.537Z,86.13
2022-12-14T05:15:17.019Z,86.24
2022-12-14T05:17:51.050Z,86.16
2022-12-14T05:20:25.756Z,86.76
2022-12-14T05:22:57.817Z,86.48
2022-12-14T05:25:30.808Z,86.79
2022-12-14T05:28:03.679Z,86.69
2022-12-14T05:30:37.126Z,86.79
2022-12-14T05:33:14.869Z,86.86
2022-12-14T05:35:48.036Z,87.26
2022-12-14T05:38:20.858Z,87.32
2022-12-14T05:40:53.645Z,87.14
2022-12-14T05:43:26.771Z,87.10
2022-12-14T05:46:02.566Z,87.21
2022-12-14T05:48:36.193Z,87.38
2022-12-14T05:51:11.446Z,87.26
2022-12-14T05:53:44.529Z,87.17
2022-12-14T05:56:17.374Z,87.33
2022-12-14T05:58:53.668Z,87.43
2022-12-14T06:01:26.653Z,87.58
2022-12-14T06:03:59.874Z,87.68
2022-12-14T06:06:35.029Z,87.88
2022-12-14T06:09:15.898Z,87.97
2022-12-14T06:11:50.402Z,88.19
2022-12-14T06:14:24.776Z,88.21
2022-12-14T06:16:57.904Z,88.19
2022-12-14T06:19:32.057Z,88.37
2022-12-14T06:22:05.066Z,88.49
2022-12-14T06:24:40.013Z,88.74
2022-12-14T06:27:13.286Z,88.82
2022-12-14T06:29:47.742Z,89.12
2022-12-14T06:32:20.714Z,89.23
2022-12-14T06:34:53.768Z,89.48
2022-12-14T06:37:26.756Z,89.64
2022-12-14T06:39:59.692Z,89.70
2022-12-14T06:42:36.307Z,89.98
2022-12-14T06:45:09.979Z,90.04
2022-12-14T06:47:43.244Z,90.08
2022-12-14T06:50:16.314Z,90.20
2022-12-14T06:52:52.852Z,90.39
2022-12-14T06:55:29.481Z,90.39
2022-12-14T06:58:02.241Z,90.52
2022-12-14T07:00:35.459Z,90.62
2022-12-14T07:03:09.439Z,90.76
2022-12-14T07:05:47.223Z,90.83
2022-12-14T07:08:16.546Z,90.92
2022-12-14T07:10:49.492Z,90.71
2022-12-14T07:13:23.159Z,90.73
2022-12-14T07:15:58.054Z,90.92
2022-12-14T07:18:31.117Z,90.36
2022-12-14T07:21:09.696Z,89.36
2022-12-14T07:23:44.402Z,88.77
2022-12-14T07:26:23.498Z,86.77
2022-12-14T07:28:56.936Z,85.92
2022-12-14T07:31:30.924Z,84.56
2022-12-14T07:34:05.940Z,84.44
2022-12-14T07:36:41.058Z,83.95
2022-12-14T07:39:15.259Z,83.58
2022-12-14T07:41:49.173Z,82.69
2022-12-14T07:44:23.874Z,82.64
2022-12-14T07:46:57.248Z,82.57
2022-12-14T07:49:30.216Z,81.65
2022-12-14T07:52:02.915Z,81.44
2022-12-14T07:54:36.462Z,81.39
2022-12-14T07:57:09.467Z,81.20
2022-12-14T07:59:42.627Z,80.49
2022-12-14T08:02:15.774Z,80.38
2022-12-14T08:04:49.126Z,80.89
2022-12-14T08:07:22.040Z,80.79
2022-12-14T08:09:55.204Z,80.79
2022-12-14T08:12:29.094Z,80.76
2022-12-14T08:15:02.467Z,81.04
2022-12-14T08:17:35.918Z,80.20
2022-12-14T08:20:09.524Z,80.44
2022-12-14T08:22:42.413Z,80.79
2022-12-14T08:25:15.403Z,80.64
2022-12-14T08:27:48.283Z,80.66
2022-12-14T08:30:21.650Z,81.04
2022-12-14T08:32:54.308Z,80.90
2022-12-14T08:35:27.602Z,80.88
2022-12-14T08:38:01.431Z,81.40
2022-12-14T08:40:39.230Z,82.10
2022-12-14T08:43:12.188Z,82.80
2022-12-14T08:45:44.983Z,83.34
2022-12-14T08:48:18.099Z,83.60
2022-12-14T08:50:51.653Z,83.37
2022-12-14T08:53:24.280Z,83.39
2022-12-14T08:55:57.019Z,83.36
2022-12-14T08:58:30.198Z,83.27
2022-12-14T09:01:08.531Z,82.75
2022-12-14T09:03:47.477Z,82.42
2022-12-14T09:06:28.175Z,82.05
2022-12-14T09:09:01.701Z,82.19
2022-12-14T09:11:35.419Z,82.02
2022-12-14T09:14:08.717Z,82.02
2022-12-14T09:16:41.996Z,81.49
2022-12-14T09:19:15.137Z,80.86
2022-12-14T09:21:48.350Z,80.37
2022-12-14T09:24:22.586Z,78.91
2022-12-14T09:26:55.367Z,79.24
2022-12-14T09:29:29.578Z,78.73
2022-12-14T09:32:02.702Z,78.81
2022-12-14T09:34:35.773Z,79.06
2022-12-14T09:37:08.600Z,78.78
2022-12-14T09:39:41.940Z,78.35
2022-12-14T09:42:43.821Z,77.42
2022-12-14T09:45:29.253Z,76.19
2022-12-14T09:48:21.202Z,75.35
2022-12-14T09:50:54.980Z,74.57
2022-12-14T09:53:29.631Z,74.07
2022-12-14T09:56:02.987Z,74.15
2022-12-14T09:58:35.898Z,74.77
2022-12-14T10:01:25.587Z,75.29
2022-12-14T10:04:29.135Z,74.86
2022-12-14T10:07:21.141Z,73.88
2022-12-14T10:10:01.992Z,74.45
2022-12-14T10:13:09.026Z,74.78
2022-12-14T10:16:18.840Z,74.81
2022-12-14T10:19:16.075Z,74.91
2022-12-14T10:22:01.915Z,75.63
2022-12-14T10:24:40.505Z,76.07
2022-12-14T10:27:21.052Z,76.39
2022-12-14T10:30:04.272Z,75.89
2022-12-14T10:32:52.220Z,75.65
2022-12-14T10:35:53.867Z,75.36
2022-12-14T10:38:37.561Z,75.33
2022-12-14T10:41:30.576Z,74.51
2022-12-14T10:44:30.604Z,74.54
2022-12-14T10:47:13.923Z,74.80
2022-12-14T10:50:11.069Z,74.94
2022-12-14T10:52:45.792Z,74.25
2022-12-14T10:55:25.869Z,72.88
2022-12-14T10:57:58.983Z,71.50
2022-12-14T11:00:31.880Z,70.49
2022-12-14T11:03:05.375Z,69.95
2022-12-14T11:06:16.298Z,69.57
2022-12-14T11:08:50.870Z,69.57
2022-12-14T11:11:26.467Z,69.95
2022-12-14T11:14:11.214Z,68.99
2022-12-14T11:16:45.047Z,68.69
2022-12-14T11:19:24.282Z,68.76
2022-12-14T11:22:22.299Z,68.93
2022-12-14T11:24:51.974Z,68.24
2022-12-14T11:27:24.744Z,68.60
2022-12-14T11:29:58.386Z,68.96
2022-12-14T11:32:31.413Z,68.85
2022-12-14T11:35:04.528Z,69.06
2022-12-14T11:37:37.836Z,68.69
2022-12-14T11:40:25.541Z,69.13
2022-12-14T11:43:02.822Z,69.47
2022-12-14T11:45:36.501Z,67.91
2022-12-14T11:48:20.300Z,67.35
2022-12-14T11:50:57.146Z,66.85
2022-12-14T11:53:29.861Z,66.96
2022-12-14T11:56:08.026Z,66.93
2022-12-14T11:58:51.215Z,66.82
2022-12-14T12:01:26.968Z,67.07
2022-12-14T12:04:00.870Z,67.33
2022-12-14T12:06:34.251Z,68.01
2022-12-14T12:09:21.168Z,68.06
2022-12-14T12:11:54.270Z,67.41
2022-12-14T12:14:37.317Z,67.25
2022-12-14T12:17:28.905Z,67.39
2022-12-14T12:20:02.811Z,67.74
2022-12-14T12:22:37.363Z,67.99
2022-12-14T12:25:30.782Z,68.14
2022-12-14T12:27:49.945Z,68.03
2022-12-14T12:30:28.479Z,68.39
2022-12-14T12:33:08.345Z,68.77
2022-12-14T12:35:57.156Z,69.24
2022-12-14T12:38:58.602Z,68.73
2022-12-14T12:41:39.460Z,68.74
2022-12-14T12:44:52.299Z,69.21
2022-12-14T12:47:46.790Z,68.71
2022-12-14T12:50:22.919Z,68.18
2022-12-14T12:53:03.757Z,68.30
2022-12-14T12:55:44.040Z,67.98
2022-12-14T12:58:27.190Z,68.04
2022-12-14T13:01:05.419Z,68.26
2022-12-14T13:03:47.489Z,68.60
2022-12-14T13:06:32.296Z,68.91
2022-12-14T13:09:12.559Z,69.23
2022-12-14T13:11:46.921Z,69.77
2022-12-14T13:14:33.426Z,70.11
2022-12-14T13:17:09.318Z,70.65
2022-12-14T13:19:51.912Z,70.82
2022-12-14T13:22:26.193Z,71.31
2022-12-14T13:25:08.556Z,71.22
2022-12-14T13:28:00.854Z,71.34
2022-12-14T13:30:53.351Z,71.58
2022-12-14T13:33:51.816Z,71.93
2022-12-14T13:36:51.265Z,72.25
2022-12-14T13:39:56.776Z,72.53
2022-12-14T13:42:53.486Z,72.79
2022-12-14T13:45:32.837Z,73.18
2022-12-14T13:48:24.010Z,73.63
2022-12-14T13:51:09.027Z,73.89
2022-12-14T13:53:50.417Z,74.11
2022-12-14T13:56:33.453Z,74.61
2022-12-14T13:59:09.926Z,75.11
2022-12-14T14:01:53.790Z,75.52
2022-12-14T14:04:37.381Z,75.79
2022-12-14T14:07:30.160Z,76.36
2022-12-14T14:10:07.115Z,76.75
2022-12-14T14:12:45.545Z,77.23
2022-12-14T14:15:29.549Z,77.18
2022-12-14T14:18:16.243Z,77.17
2022-12-14T14:20:58.928Z,77.37
2022-12-14T14:23:35.825Z,77.44
2022-12-14T14:26:19.438Z,77.96
2022-12-14T14:29:24.731Z,78.17
2022-12-14T14:32:07.018Z,78.60
2022-12-14T14:34:49.761Z,79.05
2022-12-14T14:37:30.794Z,79.38
2022-12-14T14:40:23.932Z,79.60
2022-12-14T14:42:59.646Z,79.36
2022-12-14T14:45:46.049Z,79.44
2022-12-14T14:48:43.865Z,79.82
2022-12-14T14:51:21.647Z,80.08
2022-12-14T14:56:57.150Z,80.46
2022-12-14T14:59:40.685Z,80.62
2022-12-14T15:02:32.924Z,80.59
2022-12-14T15:07:43.718Z,81.10
2022-12-14T15:10:27.648Z,81.17
2022-12-14T15:13:05.056Z,81.19
2022-12-14T15:15:50.029Z,81.22
2022-12-14T15:18:26.552Z,81.00
2022-12-14T15:21:12.036Z,80.74
2022-12-14T15:23:51.254Z,81.36
2022-12-14T15:26:28.818Z,81.11
2022-12-14T15:29:07.794Z,81.10
2022-12-14T15:31:42.549Z,81.08
2022-12-14T15:34:20.662Z,81.41
2022-12-14T15:36:53.975Z,81.54
2022-12-14T15:39:42.096Z,81.82
2022-12-14T15:42:19.383Z,81.98
2022-12-14T15:44:55.480Z,81.93
2022-12-14T15:47:32.042Z,81.93
2022-12-14T15:50:33.264Z,81.88
2022-12-14T15:53:13.941Z,81.39
2022-12-14T15:55:58.263Z,80.83
2022-12-14T15:58:33.163Z,80.69
2022-12-14T16:01:26.140Z,80.41
2022-12-14T16:04:02.457Z,80.07
2022-12-14T16:06:42.189Z,79.90
2022-12-14T16:09:23.049Z,79.44
2022-12-14T16:12:00.719Z,79.12
2022-12-14T16:14:43.736Z,79.23
2022-12-14T16:17:24.230Z,79.38
2022-12-14T16:20:01.351Z,79.42
2022-12-14T16:22:35.144Z,80.08
2022-12-14T16:25:20.342Z,80.32
2022-12-14T16:27:54.059Z,80.68
2022-12-14T16:30:34.738Z,81.38
2022-12-14T16:33:20.727Z,81.84
2022-12-14T16:36:10.162Z,81.57
2022-12-14T16:39:04.168Z,81.19
2022-12-14T16:42:00.811Z,81.43
2022-12-14T16:44:39.580Z,81.86
2022-12-14T16:47:20.107Z,82.03
2022-12-14T16:49:56.444Z,82.34
2022-12-14T16:52:38.258Z,82.88
2022-12-14T16:55:20.239Z,83.25
2022-12-14T16:57:58.907Z,83.50
2022-12-14T17:00:38.004Z,83.51
2022-12-14T17:03:24.637Z,83.65
2022-12-14T17:06:01.647Z,83.78
2022-12-14T17:08:36.240Z,84.08
2022-12-14T17:11:11.580Z,84.26
2022-12-14T17:13:45.368Z,84.89
2022-12-14T17:16:22.058Z,84.99
2022-12-14T17:18:54.980Z,85.13
2022-12-14T17:21:30.103Z,85.41
2022-12-14T17:24:03.347Z,85.60
2022-12-14T17:26:36.544Z,85.88
2022-12-14T17:29:25.698Z,86.30
2022-12-14T17:32:01.877Z,86.48
2022-12-14T17:34:34.930Z,86.48
2022-12-14T17:37:17.811Z,86.67
2022-12-14T17:39:51.165Z,87.04
2022-12-14T17:42:25.308Z,87.22
2022-12-14T17:44:59.907Z,87.55
2022-12-14T17:47:33.281Z,87.76
2022-12-14T17:50:06.792Z,87.82
2022-12-14T17:52:40.063Z,87.98
2022-12-14T17:55:22.528Z,88.22
2022-12-14T17:57:56.266Z,88.31
2022-12-14T18:00:49.504Z,88.48
2022-12-14T18:03:23.411Z,88.40
2022-12-14T18:05:56.513Z,88.61
2022-12-14T18:08:30.195Z,88.77
2022-12-14T18:11:13.406Z,88.90
2022-12-14T18:13:42.544Z,89.10
2022-12-14T18:16:22.340Z,89.03
2022-12-14T18:18:56.325Z,88.91
2022-12-14T18:21:29.980Z,88.93
2022-12-14T18:24:06.764Z,89.11
2022-12-14T18:26:38.234Z,89.04
2022-12-14T18:29:11.170Z,89.06
2022-12-14T18:31:45.991Z,89.02
2022-12-14T18:34:20.907Z,89.00
2022-12-14T18:36:54.149Z,88.88
2022-12-14T18:39:27.033Z,88.65
2022-12-14T18:42:00.391Z,88.59
2022-12-14T18:44:33.996Z,88.63
2022-12-14T18:47:39.593Z,88.51
2022-12-14T18:49:42.111Z,88.26
2022-12-14T18:52:15.932Z,88.11
2022-12-14T18:54:48.944Z,88.09
2022-12-14T18:57:21.932Z,87.84
2022-12-14T18:59:55.642Z,87.46
2022-12-14T19:02:29.374Z,87.24
2022-12-14T19:05:02.494Z,87.28
2022-12-14T19:07:35.983Z,87.27
2022-12-14T19:10:09.397Z,87.57
2022-12-14T19:12:42.562Z,87.57
2022-12-14T19:15:19.400Z,87.28
2022-12-14T19:17:53.045Z,87.48
2022-12-14T19:20:28.438Z,87.80
2022-12-14T19:23:02.764Z,87.86
2022-12-14T19:25:35.975Z,87.98
2022-12-14T19:28:30.989Z,88.41
2022-12-14T19:30:45.994Z,88.52
2022-12-14T19:33:21.055Z,88.65
2022-12-14T19:35:54.410Z,88.51
2022-12-14T19:38:28.712Z,88.62
2022-12-14T19:41:12.101Z,88.91
2022-12-14T19:43:45.529Z,89.34
2022-12-14T19:46:19.216Z,89.57
2022-12-14T19:48:52.913Z,89.32
2022-12-14T19:51:25.985Z,89.27
2022-12-14T19:54:00.785Z,89.35
2022-12-14T19:56:35.140Z,89.48
2022-12-14T19:59:08.191Z,89.52
2022-12-14T20:01:47.742Z,89.45
2022-12-14T20:04:17.472Z,89.12
2022-12-14T20:06:49.599Z,89.26
2022-12-14T20:09:22.660Z,89.29
2022-12-14T20:11:55.558Z,89.44
2022-12-14T20:14:28.794Z,89.56
2022-12-14T20:17:02.466Z,89.79
2022-12-14T20:19:36.835Z,90.12
2022-12-14T20:22:10.873Z,90.38
2022-12-14T20:24:46.053Z,90.53
2022-12-14T20:27:20.174Z,90.68
2022-12-14T20:29:53.499Z,90.89
2022-12-14T20:32:26.437Z,90.99
2022-12-14T20:35:00.537Z,90.97
2022-12-14T20:37:34.125Z,91.24
2022-12-14T20:40:08.434Z,91.25
2022-12-14T20:42:41.725Z,91.31
2022-12-14T20:45:14.420Z,90.99
2022-12-14T20:47:47.775Z,90.73
2022-12-14T20:50:20.942Z,90.52
2022-12-14T20:52:53.880Z,90.43
2022-12-14T20:55:27.045Z,90.16
2022-12-14T20:58:00.444Z,90.10
2022-12-14T21:00:33.731Z,90.18
2022-12-14T21:03:07.077Z,90.44
2022-12-14T21:05:43.862Z,90.47
2022-12-14T21:08:16.842Z,90.62
2022-12-14T21:10:49.880Z,90.27
2022-12-14T21:13:22.817Z,89.77
2022-12-14T21:15:55.892Z,89.68
2022-12-14T21:18:29.082Z,89.54
2022-12-14T21:21:05.264Z,89.47
2022-12-14T21:23:38.395Z,89.44
2022-12-14T21:26:11.534Z,89.18
2022-12-14T21:28:44.524Z,89.02
2022-12-14T21:31:17.812Z,89.03
2022-12-14T21:33:51.119Z,89.00
2022-12-14T21:36:24.118Z,88.68
2022-12-14T21:38:57.670Z,88.54
2022-12-14T21:41:48.653Z,88.37
2022-12-14T21:44:21.633Z,88.24
2022-12-14T21:46:54.746Z,88.12
2022-12-14T21:49:28.523Z,88.06
2022-12-14T21:52:04.549Z,88.03
2022-12-14T21:54:37.376Z,87.99
2022-12-14T21:57:31.613Z,87.90
2022-12-14T22:00:06.445Z,88.00
2022-12-14T22:02:45.517Z,88.27
2022-12-14T22:05:20.179Z,88.40
2022-12-14T22:07:53.254Z,88.46
2022-12-14T22:10:26.295Z,88.40
2022-12-14T22:12:59.207Z,88.25
2022-12-14T22:15:32.336Z,88.28
2022-12-14T22:18:05.762Z,88.34
2022-12-14T22:20:39.311Z,88.50
2022-12-14T22:23:12.337Z,88.60
2022-12-14T22:25:54.535Z,88.56
2022-12-14T22:28:27.644Z,88.45
2022-12-14T22:31:05.029Z,88.66
2022-12-14T22:33:38.263Z,88.57
2022-12-14T22:36:12.025Z,88.56
2022-12-14T22:38:45.839Z,88.77
2022-12-14T22:41:20.781Z,88.79
2022-12-14T22:44:00.883Z,88.66
2022-12-14T22:46:34.595Z,88.67
2022-12-14T22:49:07.683Z,88.45
2022-12-14T22:51:41.392Z,88.49
2022-12-14T22:54:26.392Z,88.52
2022-12-14T22:57:03.949Z,88.46
2022-12-14T22:59:40.752Z,88.39
2022-12-14T23:02:13.995Z,88.27
2022-12-14T23:04:46.875Z,88.22
2022-12-14T23:07:21.637Z,88.03
2022-12-14T23:10:12.414Z,87.88
2022-12-14T23:13:04.152Z,87.92
2022-12-14T23:15:55.870Z,87.57
2022-12-14T23:18:47.145Z,87.75
2022-12-14T23:21:39.297Z,87.77
2022-12-14T23:24:30.468Z,87.99
2022-12-14T23:27:21.408Z,88.18
2022-12-14T23:30:12.330Z,88.12
2022-12-14T23:33:02.919Z,88.07
2022-12-14T23:35:56.275Z,88.24
2022-12-14T23:38:46.931Z,88.32
2022-12-14T23:41:37.436Z,88.59
2022-12-14T23:44:28.539Z,88.93
2022-12-14T23:47:19.606Z,89.45
2022-12-14T23:50:10.588Z,89.56
2022-12-14T23:53:01.943Z,89.49
2022-12-14T23:55:54.964Z,89.71
2022-12-14T23:58:46.357Z,89.79
